NCAR-RAP Real-Time Weather Data

Output produced by METARs form (10 April 2020  06:30 UTC)
found at http://weather.rap.ucar.edu/surface/
 
KBIS 100552Z AUTO 00000KT 10SM CLR M03/M06 A3010 RMK AO2 SLP214 T10331061 10050 21033 400561050 58016
KBIS 100452Z AUTO 00000KT 10SM CLR M02/M06 A3012 RMK AO2 SLP223 T10171056
KBIS 100352Z 00000KT 10SM CLR M02/M07 A3014 RMK AO2 SLP229 T10171072
KBIS 100252Z 18003KT 10SM CLR M02/M07 A3015 RMK AO2 SLP233 T10171072 56008
KBIS 100152Z 25005KT 10SM CLR 02/M08 A3015 RMK AO2 SLP233 T00221083
KBIS 100052Z 26009KT 10SM CLR 04/M09 A3016 RMK AO2 SLP235 T00441094
KBIS 092352Z 30007KT 10SM CLR 05/M10 A3017 RMK AO2 SLP237 T00501100 10056 21006 56015
KBIS 092252Z 31005KT 10SM CLR 06/M09 A3019 RMK AO2 SLP241 T00561089
KBIS 092152Z 36008KT 10SM CLR 04/M09 A3020 RMK AO2 SLP244 T00441094
KBIS 092052Z 32007G15KT 10SM CLR 04/M08 A3022 RMK AO2 SLP252 T00391083 57016
KBIS 091952Z 34015G23KT 10SM CLR 03/M08 A3023 RMK AO2 SLP257 T00281083
KBIS 091852Z 33015G22KT 10SM CLR 02/M09 A3025 RMK AO2 SLP264 T00171094
KBIS 091752Z 36015G23KT 10SM CLR 00/M11 A3027 RMK AO2 PK WND 34027/1709 SLP270 60000 T00001106 10000 21050 51013
KBIS 091652Z 33017G29KT 10SM FEW028 SCT034 M02/M11 A3027 RMK AO2 PK WND 34029/1643 SLP271 T10221106
KBIS 091552Z 34019G28KT 10SM OVC038 M03/M13 A3025 RMK AO2 PK WND 34034/1525 SNE1457 SLP266 P0000 T10331128
KBIS 091452Z 32022G32KT 6SM -SN FEW024 BKN030 BKN037 M04/M12 A3023 RMK AO2 PK WND 33033/1437 SNB46 SLP257 P0000 60000 T10391117 51039
KBIS 091352Z 32019G27KT 10SM FEW029 M04/M12 A3020 RMK AO2 PK WND 33035/1323 SLP248 T10441117
KBIS 091252Z 32020G29KT 10SM CLR M05/M12 A3017 RMK AO2 PK WND 32039/1221 SLP235 T10501122
KBIS 091152Z 33021G32KT 10SM FEW027 BKN037 OVC045 M04/M11 A3011 RMK AO2 PK WND 31041/1116 SLP213 T10391111 10006 21039 53023
KBIS 091125Z 34023G41KT 10SM FEW030 BKN050 OVC070 M02/M09 A3007 RMK AO2 PK WND 31041/1116 T10221094
KBIS 091118Z 31027G41KT 1 3/4SM FEW033 FEW043 OVC060 M02/M09 A3007 RMK AO2 PK WND 31041/1116 T10221089
KBIS 091052Z 32023G35KT 5SM FEW032 SCT070 M02/M08 A3006 RMK AO2 PK WND 33035/1047 SLP196 T10221083
KBIS 090952Z AUTO 31015G26KT 10SM SCT075 M02/M06 A3004 RMK AO2 PK WND 31029/0904 SLP189 T10171061
KBIS 090852Z AUTO 32018G27KT 10SM FEW030 BKN046 OVC055 M02/M07 A3003 RMK AO2 PK WND 33032/0833 SLP186 T10171067 53010
KBIS 090752Z AUTO 31016G27KT 10SM SCT065 M01/M08 A3002 RMK AO2 PK WND 32027/0704 SLP180 T10061078